sensor_id;sensor_type;location;lat;lon;timestamp;pressure;altitude;pressure_sealevel;temperature;humidity
41596;BME280;27283;52.504;13.358;2024-01-27T00:00:42;102149.44;;;4.89;79.82
41596;BME280;27283;52.504;13.358;2024-01-27T00:03:35;102149.75;;;5.13;79.11
41596;BME280;27283;52.504;13.358;2024-01-27T00:06:06;102154.50;;;4.94;78.72
41596;BME280;27283;52.504;13.358;2024-01-27T00:08:38;102157.97;;;4.80;79.75
41596;BME280;27283;52.504;13.358;2024-01-27T00:11:11;102159.81;;;4.79;79.40
41596;BME280;27283;52.504;13.358;2024-01-27T00:13:46;102161.41;;;5.54;77.66
41596;BME280;27283;52.504;13.358;2024-01-27T00:16:18;102155.06;;;4.99;79.22
41596;BME280;27283;52.504;13.358;2024-01-27T00:18:50;102152.50;;;5.12;78.50
41596;BME280;27283;52.504;13.358;2024-01-27T00:21:22;102149.53;;;4.88;78.70
41596;BME280;27283;52.504;13.358;2024-01-27T00:23:54;102157.50;;;4.59;79.13
41596;BME280;27283;52.504;13.358;2024-01-27T00:26:29;102154.94;;;4.72;79.79
41596;BME280;27283;52.504;13.358;2024-01-27T00:29:04;102160.16;;;4.59;79.21
41596;BME280;27283;52.504;13.358;2024-01-27T00:31:36;102166.56;;;4.85;79.02
41596;BME280;27283;52.504;13.358;2024-01-27T00:34:09;102173.72;;;4.85;77.61
41596;BME280;27283;52.504;13.358;2024-01-27T00:36:41;102193.44;;;5.11;76.44
41596;BME280;27283;52.504;13.358;2024-01-27T00:39:18;102165.91;;;5.25;76.70
41596;BME280;27283;52.504;13.358;2024-01-27T00:41:51;102174.00;;;5.23;75.18
41596;BME280;27283;52.504;13.358;2024-01-27T00:44:27;102172.97;;;5.26;74.26
41596;BME280;27283;52.504;13.358;2024-01-27T00:46:59;102170.09;;;5.29;74.57
41596;BME280;27283;52.504;13.358;2024-01-27T00:49:31;102181.03;;;5.10;75.45
41596;BME280;27283;52.504;13.358;2024-01-27T00:52:04;102194.28;;;5.26;74.24
41596;BME280;27283;52.504;13.358;2024-01-27T00:54:36;102189.25;;;4.92;75.16
41596;BME280;27283;52.504;13.358;2024-01-27T00:57:12;102197.50;;;5.60;72.77
41596;BME280;27283;52.504;13.358;2024-01-27T00:59:46;102205.63;;;5.29;73.43
41596;BME280;27283;52.504;13.358;2024-01-27T01:02:18;102199.91;;;5.07;73.48
41596;BME280;27283;52.504;13.358;2024-01-27T01:04:50;102203.03;;;4.99;74.29
41596;BME280;27283;52.504;13.358;2024-01-27T01:07:22;102196.00;;;5.12;74.33
41596;BME280;27283;52.504;13.358;2024-01-27T01:09:54;102195.63;;;5.33;73.67
41596;BME280;27283;52.504;13.358;2024-01-27T01:12:26;102193.13;;;5.44;72.30
41596;BME280;27283;52.504;13.358;2024-01-27T01:15:01;102221.59;;;4.86;74.12
41596;BME280;27283;52.504;13.358;2024-01-27T01:17:33;102216.47;;;4.83;74.66
41596;BME280;27283;52.504;13.358;2024-01-27T01:20:07;102211.72;;;5.31;73.12
41596;BME280;27283;52.504;13.358;2024-01-27T01:22:39;102213.59;;;5.01;73.11
41596;BME280;27283;52.504;13.358;2024-01-27T01:25:11;102213.44;;;5.18;73.33
41596;BME280;27283;52.504;13.358;2024-01-27T01:27:43;102222.44;;;4.87;74.39
41596;BME280;27283;52.504;13.358;2024-01-27T01:30:20;102218.66;;;5.05;73.82
41596;BME280;27283;52.504;13.358;2024-01-27T01:32:52;102230.81;;;4.95;74.88
41596;BME280;27283;52.504;13.358;2024-01-27T01:35:24;102217.50;;;4.95;73.91
41596;BME280;27283;52.504;13.358;2024-01-27T01:37:56;102217.72;;;5.35;73.64
41596;BME280;27283;52.504;13.358;2024-01-27T01:40:28;102223.00;;;4.92;74.11
41596;BME280;27283;52.504;13.358;2024-01-27T01:43:00;102216.56;;;4.96;73.76
41596;BME280;27283;52.504;13.358;2024-01-27T01:45:36;102223.50;;;5.13;73.89
41596;BME280;27283;52.504;13.358;2024-01-27T01:48:24;102217.34;;;5.41;72.78
41596;BME280;27283;52.504;13.358;2024-01-27T01:50:58;102229.91;;;4.66;74.63
41596;BME280;27283;52.504;13.358;2024-01-27T01:53:31;102226.78;;;4.59;76.42
41596;BME280;27283;52.504;13.358;2024-01-27T01:56:05;102222.28;;;4.59;76.06
41596;BME280;27283;52.504;13.358;2024-01-27T01:58:37;102226.44;;;4.79;76.01
41596;BME280;27283;52.504;13.358;2024-01-27T02:01:12;102224.59;;;4.35;78.06
41596;BME280;27283;52.504;13.358;2024-01-27T02:03:52;102241.41;;;4.96;76.05
41596;BME280;27283;52.504;13.358;2024-01-27T02:06:24;102229.38;;;4.44;78.21
41596;BME280;27283;52.504;13.358;2024-01-27T02:08:56;102240.16;;;4.57;78.24
41596;BME280;27283;52.504;13.358;2024-01-27T02:11:28;102257.00;;;4.58;78.41
41596;BME280;27283;52.504;13.358;2024-01-27T02:14:00;102252.53;;;4.89;77.56
41596;BME280;27283;52.504;13.358;2024-01-27T02:16:45;102259.63;;;4.74;77.93
41596;BME280;27283;52.504;13.358;2024-01-27T02:19:17;102250.50;;;4.48;79.28
41596;BME280;27283;52.504;13.358;2024-01-27T02:21:50;102256.94;;;4.74;78.22
41596;BME280;27283;52.504;13.358;2024-01-27T02:24:25;102273.50;;;4.65;78.73
41596;BME280;27283;52.504;13.358;2024-01-27T02:26:57;102264.28;;;5.15;77.22
41596;BME280;27283;52.504;13.358;2024-01-27T02:29:30;102268.69;;;4.71;78.96
41596;BME280;27283;52.504;13.358;2024-01-27T02:32:02;102268.41;;;4.90;78.17
41596;BME280;27283;52.504;13.358;2024-01-27T02:34:34;102281.63;;;4.77;78.77
41596;BME280;27283;52.504;13.358;2024-01-27T02:37:06;102271.00;;;4.61;79.31
41596;BME280;27283;52.504;13.358;2024-01-27T02:39:41;102282.00;;;5.16;77.70
41596;BME280;27283;52.504;13.358;2024-01-27T02:42:13;102285.88;;;4.66;79.43
41596;BME280;27283;52.504;13.358;2024-01-27T02:44:45;102291.91;;;4.53;79.60
41596;BME280;27283;52.504;13.358;2024-01-27T02:47:31;102285.94;;;4.34;80.39
41596;BME280;27283;52.504;13.358;2024-01-27T02:50:04;102287.16;;;4.74;79.64
41596;BME280;27283;52.504;13.358;2024-01-27T02:52:37;102286.84;;;5.24;78.32
41596;BME280;27283;52.504;13.358;2024-01-27T02:55:12;102284.59;;;4.87;77.69
41596;BME280;27283;52.504;13.358;2024-01-27T02:57:44;102285.75;;;4.83;78.59
41596;BME280;27283;52.504;13.358;2024-01-27T03:00:16;102287.06;;;4.76;79.90
41596;BME280;27283;52.504;13.358;2024-01-27T03:02:49;102286.69;;;4.52;79.83
41596;BME280;27283;52.504;13.358;2024-01-27T03:05:21;102285.97;;;4.48;79.91
41596;BME280;27283;52.504;13.358;2024-01-27T03:07:53;102299.56;;;4.59;80.29
41596;BME280;27283;52.504;13.358;2024-01-27T03:10:28;102295.91;;;4.76;79.79
41596;BME280;27283;52.504;13.358;2024-01-27T03:13:00;102291.25;;;4.34;80.77
41596;BME280;27283;52.504;13.358;2024-01-27T03:15:32;102297.78;;;4.44;80.56
41596;BME280;27283;52.504;13.358;2024-01-27T03:18:12;102303.78;;;4.32;80.72
41596;BME280;27283;52.504;13.358;2024-01-27T03:20:44;102307.41;;;4.31;80.95
41596;BME280;27283;52.504;13.358;2024-01-27T03:23:16;102308.00;;;4.52;80.62
41596;BME280;27283;52.504;13.358;2024-01-27T03:25:50;102316.84;;;4.20;81.07
41596;BME280;27283;52.504;13.358;2024-01-27T03:28:23;102307.66;;;4.10;82.04
41596;BME280;27283;52.504;13.358;2024-01-27T03:30:55;102313.63;;;4.61;80.77
41596;BME280;27283;52.504;13.358;2024-01-27T03:33:28;102306.19;;;4.20;80.86
41596;BME280;27283;52.504;13.358;2024-01-27T03:36:00;102306.19;;;3.88;83.16
41596;BME280;27283;52.504;13.358;2024-01-27T03:38:33;102304.75;;;4.31;82.67
41596;BME280;27283;52.504;13.358;2024-01-27T03:41:08;102312.63;;;4.16;82.55
41596;BME280;27283;52.504;13.358;2024-01-27T03:43:40;102306.19;;;4.04;82.60
41596;BME280;27283;52.504;13.358;2024-01-27T03:46:10;102311.94;;;3.97;83.60
41596;BME280;27283;52.504;13.358;2024-01-27T03:48:44;102315.03;;;3.89;83.79
41596;BME280;27283;52.504;13.358;2024-01-27T03:51:16;102305.59;;;3.99;82.33
41596;BME280;27283;52.504;13.358;2024-01-27T03:53:48;102304.28;;;3.90;83.61
41596;BME280;27283;52.504;13.358;2024-01-27T03:56:23;102309.22;;;3.65;84.81
41596;BME280;27283;52.504;13.358;2024-01-27T03:58:55;102320.34;;;3.73;85.18
41596;BME280;27283;52.504;13.358;2024-01-27T04:01:27;102320.75;;;3.81;84.89
41596;BME280;27283;52.504;13.358;2024-01-27T04:03:59;102331.88;;;3.89;84.86
41596;BME280;27283;52.504;13.358;2024-01-27T04:06:36;102342.50;;;3.89;84.09
41596;BME280;27283;52.504;13.358;2024-01-27T04:09:09;102335.63;;;4.01;84.60
41596;BME280;27283;52.504;13.358;2024-01-27T04:11:44;102336.47;;;3.70;85.70
41596;BME280;27283;52.504;13.358;2024-01-27T04:14:16;102329.50;;;3.83;85.70
41596;BME280;27283;52.504;13.358;2024-01-27T04:17:16;102345.44;;;4.33;82.92
41596;BME280;27283;52.504;13.358;2024-01-27T04:19:48;102334.22;;;3.78;85.22
41596;BME280;27283;52.504;13.358;2024-01-27T04:22:20;102344.63;;;3.83;85.07
41596;BME280;27283;52.504;13.358;2024-01-27T04:24:52;102347.34;;;3.99;85.44
41596;BME280;27283;52.504;13.358;2024-01-27T04:27:27;102366.91;;;3.64;85.80
41596;BME280;27283;52.504;13.358;2024-01-27T04:30:00;102365.25;;;3.95;85.82
41596;BME280;27283;52.504;13.358;2024-01-27T04:32:31;102368.81;;;3.78;86.01
41596;BME280;27283;52.504;13.358;2024-01-27T04:35:07;102374.78;;;3.99;84.88
41596;BME280;27283;52.504;13.358;2024-01-27T04:37:40;102384.09;;;4.24;84.17
41596;BME280;27283;52.504;13.358;2024-01-27T04:40:13;102374.78;;;3.99;85.02
41596;BME280;27283;52.504;13.358;2024-01-27T04:42:48;102387.81;;;3.88;86.71
41596;BME280;27283;52.504;13.358;2024-01-27T04:45:20;102393.50;;;3.98;85.93
41596;BME280;27283;52.504;13.358;2024-01-27T04:48:14;102398.00;;;3.80;86.69
41596;BME280;27283;52.504;13.358;2024-01-27T04:50:47;102394.75;;;4.08;86.09
41596;BME280;27283;52.504;13.358;2024-01-27T04:53:19;102411.47;;;4.10;86.16
41596;BME280;27283;52.504;13.358;2024-01-27T04:55:51;102417.09;;;4.21;84.78
41596;BME280;27283;52.504;13.358;2024-01-27T04:58:26;102412.91;;;4.49;84.25
41596;BME280;27283;52.504;13.358;2024-01-27T05:00:58;102427.41;;;4.28;84.37
41596;BME280;27283;52.504;13.358;2024-01-27T05:03:30;102439.69;;;3.97;85.72
41596;BME280;27283;52.504;13.358;2024-01-27T05:06:02;102432.31;;;4.35;85.26
41596;BME280;27283;52.504;13.358;2024-01-27T05:08:34;102434.28;;;3.98;85.90
41596;BME280;27283;52.504;13.358;2024-01-27T05:11:07;102438.47;;;5.15;81.98
41596;BME280;27283;52.504;13.358;2024-01-27T05:13:42;102444.03;;;4.81;84.16
41596;BME280;27283;52.504;13.358;2024-01-27T05:16:24;102447.28;;;4.38;85.00
41596;BME280;27283;52.504;13.358;2024-01-27T05:18:56;102454.47;;;5.46;80.84
41596;BME280;27283;52.504;13.358;2024-01-27T05:21:29;102461.88;;;4.94;81.80
41596;BME280;27283;52.504;13.358;2024-01-27T05:24:00;102464.06;;;4.88;83.22
41596;BME280;27283;52.504;13.358;2024-01-27T05:26:33;102458.28;;;4.48;83.83
41596;BME280;27283;52.504;13.358;2024-01-27T05:29:07;102458.31;;;4.14;85.93
41596;BME280;27283;52.504;13.358;2024-01-27T05:31:40;102462.84;;;4.46;85.36
41596;BME280;27283;52.504;13.358;2024-01-27T05:34:12;102460.03;;;4.15;85.20
41596;BME280;27283;52.504;13.358;2024-01-27T05:36:45;102464.69;;;4.28;85.14
41596;BME280;27283;52.504;13.358;2024-01-27T05:39:16;102454.13;;;4.42;85.00
41596;BME280;27283;52.504;13.358;2024-01-27T05:41:49;102451.97;;;4.33;85.02
41596;BME280;27283;52.504;13.358;2024-01-27T05:44:24;102467.31;;;4.93;83.42
41596;BME280;27283;52.504;13.358;2024-01-27T05:47:00;102466.00;;;4.52;84.25
41596;BME280;27283;52.504;13.358;2024-01-27T05:49:35;102462.41;;;4.85;83.81
41596;BME280;27283;52.504;13.358;2024-01-27T05:52:13;102455.50;;;5.13;82.94
41596;BME280;27283;52.504;13.358;2024-01-27T05:54:53;102461.28;;;5.05;81.24
41596;BME280;27283;52.504;13.358;2024-01-27T05:57:26;102465.94;;;4.86;81.88
41596;BME280;27283;52.504;13.358;2024-01-27T06:00:00;102468.59;;;5.02;82.68
41596;BME280;27283;52.504;13.358;2024-01-27T06:02:33;102475.97;;;4.65;83.37
41596;BME280;27283;52.504;13.358;2024-01-27T06:05:05;102475.75;;;4.85;83.42
41596;BME280;27283;52.504;13.358;2024-01-27T06:07:38;102480.19;;;4.53;84.24
41596;BME280;27283;52.504;13.358;2024-01-27T06:10:10;102483.09;;;4.48;85.11
41596;BME280;27283;52.504;13.358;2024-01-27T06:12:43;102484.25;;;4.76;84.16
41596;BME280;27283;52.504;13.358;2024-01-27T06:15:18;102481.56;;;4.60;84.74
41596;BME280;27283;52.504;13.358;2024-01-27T06:18:21;102492.66;;;5.32;81.22
41596;BME280;27283;52.504;13.358;2024-01-27T06:20:54;102489.16;;;4.84;83.27
41596;BME280;27283;52.504;13.358;2024-01-27T06:23:32;102490.69;;;5.20;82.71
41596;BME280;27283;52.504;13.358;2024-01-27T06:26:05;102500.91;;;5.27;82.15
41596;BME280;27283;52.504;13.358;2024-01-27T06:28:37;102499.63;;;5.19;80.72
41596;BME280;27283;52.504;13.358;2024-01-27T06:31:12;102491.72;;;4.53;84.02
41596;BME280;27283;52.504;13.358;2024-01-27T06:33:44;102495.94;;;5.21;83.22
41596;BME280;27283;52.504;13.358;2024-01-27T06:36:17;102522.06;;;5.30;82.06
41596;BME280;27283;52.504;13.358;2024-01-27T06:38:51;102515.22;;;4.94;82.62
41596;BME280;27283;52.504;13.358;2024-01-27T06:41:23;102509.84;;;5.26;82.21
41596;BME280;27283;52.504;13.358;2024-01-27T06:43:55;102523.72;;;5.01;82.71
41596;BME280;27283;52.504;13.358;2024-01-27T06:46:32;102517.78;;;5.28;82.43
41596;BME280;27283;52.504;13.358;2024-01-27T06:49:03;102534.38;;;5.33;82.18
41596;BME280;27283;52.504;13.358;2024-01-27T06:51:35;102546.34;;;4.94;83.38
41596;BME280;27283;52.504;13.358;2024-01-27T06:54:19;102542.22;;;4.88;84.02
41596;BME280;27283;52.504;13.358;2024-01-27T06:56:51;102555.03;;;4.82;84.49
41596;BME280;27283;52.504;13.358;2024-01-27T06:59:22;102563.88;;;4.98;84.09
41596;BME280;27283;52.504;13.358;2024-01-27T07:01:57;102559.84;;;5.07;83.83
41596;BME280;27283;52.504;13.358;2024-01-27T07:04:28;102554.09;;;5.30;81.43
41596;BME280;27283;52.504;13.358;2024-01-27T07:07:00;102566.72;;;5.43;82.27
41596;BME280;27283;52.504;13.358;2024-01-27T07:09:32;102567.66;;;5.10;82.01
41596;BME280;27283;52.504;13.358;2024-01-27T07:12:05;102571.81;;;5.15;83.21
41596;BME280;27283;52.504;13.358;2024-01-27T07:14:37;102580.16;;;5.09;84.15
41596;BME280;27283;52.504;13.358;2024-01-27T07:17:17;102584.94;;;5.03;84.31
41596;BME280;27283;52.504;13.358;2024-01-27T07:19:49;102594.94;;;4.66;84.56
41596;BME280;27283;52.504;13.358;2024-01-27T07:22:22;102601.88;;;4.86;85.67
41596;BME280;27283;52.504;13.358;2024-01-27T07:24:56;102587.69;;;5.01;84.34
41596;BME280;27283;52.504;13.358;2024-01-27T07:27:28;102593.03;;;4.85;85.04
41596;BME280;27283;52.504;13.358;2024-01-27T07:30:00;102597.28;;;4.72;84.56
41596;BME280;27283;52.504;13.358;2024-01-27T07:32:34;102596.03;;;4.95;85.05
41596;BME280;27283;52.504;13.358;2024-01-27T07:35:07;102618.34;;;5.58;82.84
41596;BME280;27283;52.504;13.358;2024-01-27T07:37:39;102613.00;;;5.58;82.43
41596;BME280;27283;52.504;13.358;2024-01-27T07:40:12;102620.44;;;5.37;80.93
41596;BME280;27283;52.504;13.358;2024-01-27T07:42:44;102618.78;;;5.50;82.81
41596;BME280;27283;52.504;13.358;2024-01-27T07:45:15;102620.94;;;5.27;83.16
41596;BME280;27283;52.504;13.358;2024-01-27T07:48:15;102625.09;;;5.33;83.32
41596;BME280;27283;52.504;13.358;2024-01-27T07:50:47;102624.53;;;5.74;81.72
41596;BME280;27283;52.504;13.358;2024-01-27T07:53:19;102630.41;;;5.33;81.74
41596;BME280;27283;52.504;13.358;2024-01-27T07:55:51;102622.78;;;4.93;84.00
41596;BME280;27283;52.504;13.358;2024-01-27T07:58:24;102628.84;;;5.77;82.29
41596;BME280;27283;52.504;13.358;2024-01-27T08:00:58;102648.03;;;5.83;81.21
41596;BME280;27283;52.504;13.358;2024-01-27T08:03:34;102646.38;;;5.81;79.75
41596;BME280;27283;52.504;13.358;2024-01-27T08:06:07;102649.75;;;5.21;82.81
41596;BME280;27283;52.504;13.358;2024-01-27T08:08:39;102653.19;;;5.39;82.59
41596;BME280;27283;52.504;13.358;2024-01-27T08:11:11;102647.13;;;5.53;82.04
41596;BME280;27283;52.504;13.358;2024-01-27T08:13:43;102656.47;;;5.76;81.46
41596;BME280;27283;52.504;13.358;2024-01-27T08:16:15;102653.00;;;5.10;83.25
41596;BME280;27283;52.504;13.358;2024-01-27T08:18:50;102654.91;;;5.24;83.04
41596;BME280;27283;52.504;13.358;2024-01-27T08:21:22;102653.03;;;6.06;80.03
41596;BME280;27283;52.504;13.358;2024-01-27T08:23:54;102647.53;;;5.77;80.83
41596;BME280;27283;52.504;13.358;2024-01-27T08:26:27;102659.13;;;5.12;83.19
41596;BME280;27283;52.504;13.358;2024-01-27T08:28:58;102657.53;;;5.57;82.31
41596;BME280;27283;52.504;13.358;2024-01-27T08:31:31;102663.91;;;5.55;81.34
41596;BME280;27283;52.504;13.358;2024-01-27T08:34:05;102673.69;;;5.38;81.51
41596;BME280;27283;52.504;13.358;2024-01-27T08:36:38;102674.63;;;5.69;80.65
41596;BME280;27283;52.504;13.358;2024-01-27T08:39:10;102680.56;;;5.58;80.82
41596;BME280;27283;52.504;13.358;2024-01-27T08:41:44;102680.47;;;5.92;79.51
41596;BME280;27283;52.504;13.358;2024-01-27T08:44:16;102690.38;;;6.21;79.87
41596;BME280;27283;52.504;13.358;2024-01-27T08:47:17;102694.00;;;5.89;78.04
41596;BME280;27283;52.504;13.358;2024-01-27T08:49:53;102688.34;;;5.47;81.12
41596;BME280;27283;52.504;13.358;2024-01-27T08:52:25;102704.16;;;6.30;80.02
41596;BME280;27283;52.504;13.358;2024-01-27T08:54:57;102704.63;;;6.06;79.45
41596;BME280;27283;52.504;13.358;2024-01-27T08:57:29;102691.16;;;5.60;81.41
41596;BME280;27283;52.504;13.358;2024-01-27T09:00:02;102698.66;;;5.53;81.43
41596;BME280;27283;52.504;13.358;2024-01-27T09:02:35;102700.91;;;6.09;81.20
41596;BME280;27283;52.504;13.358;2024-01-27T09:05:10;102715.78;;;6.59;77.70
41596;BME280;27283;52.504;13.358;2024-01-27T09:07:43;102721.47;;;6.23;79.17
41596;BME280;27283;52.504;13.358;2024-01-27T09:10:15;102711.03;;;5.38;82.42
41596;BME280;27283;52.504;13.358;2024-01-27T09:12:48;102711.31;;;5.65;81.63
41596;BME280;27283;52.504;13.358;2024-01-27T09:15:20;102722.13;;;6.87;76.59
41596;BME280;27283;52.504;13.358;2024-01-27T09:18:00;102724.78;;;6.12;80.36
41596;BME280;27283;52.504;13.358;2024-01-27T09:20:36;102721.56;;;6.82;76.22
41596;BME280;27283;52.504;13.358;2024-01-27T09:23:08;102719.25;;;5.99;79.94
41596;BME280;27283;52.504;13.358;2024-01-27T09:25:40;102716.41;;;5.86;80.05
41596;BME280;27283;52.504;13.358;2024-01-27T09:28:13;102730.88;;;6.14;79.51
41596;BME280;27283;52.504;13.358;2024-01-27T09:30:45;102726.25;;;6.01;79.65
41596;BME280;27283;52.504;13.358;2024-01-27T09:33:19;102726.56;;;5.95;80.88
41596;BME280;27283;52.504;13.358;2024-01-27T09:35:54;102737.78;;;5.86;81.19
41596;BME280;27283;52.504;13.358;2024-01-27T09:38:27;102739.47;;;5.87;80.25
41596;BME280;27283;52.504;13.358;2024-01-27T09:40:59;102734.47;;;6.45;79.44
41596;BME280;27283;52.504;13.358;2024-01-27T09:43:31;102737.19;;;5.97;79.46
41596;BME280;27283;52.504;13.358;2024-01-27T09:46:04;102748.69;;;6.29;79.68
41596;BME280;27283;52.504;13.358;2024-01-27T09:48:40;102756.28;;;6.67;78.20
41596;BME280;27283;52.504;13.358;2024-01-27T09:51:15;102742.22;;;6.49;78.20
41596;BME280;27283;52.504;13.358;2024-01-27T09:53:47;102744.06;;;6.63;77.47
41596;BME280;27283;52.504;13.358;2024-01-27T09:56:20;102757.69;;;6.89;76.33
41596;BME280;27283;52.504;13.358;2024-01-27T09:58:54;102751.00;;;6.35;76.64
41596;BME280;27283;52.504;13.358;2024-01-27T10:01:27;102741.66;;;6.12;78.89
41596;BME280;27283;52.504;13.358;2024-01-27T10:04:01;102761.28;;;5.95;80.46
41596;BME280;27283;52.504;13.358;2024-01-27T10:06:37;102762.53;;;6.06;79.38
41596;BME280;27283;52.504;13.358;2024-01-27T10:09:09;102770.69;;;7.09;76.02
41596;BME280;27283;52.504;13.358;2024-01-27T10:11:45;102772.31;;;5.89;78.88
41596;BME280;27283;52.504;13.358;2024-01-27T10:14:17;102773.84;;;7.02;76.57
41596;BME280;27283;52.504;13.358;2024-01-27T10:17:21;102764.75;;;5.97;78.80
41596;BME280;27283;52.504;13.358;2024-01-27T10:20:06;102767.22;;;6.63;77.10
41596;BME280;27283;52.504;13.358;2024-01-27T10:22:46;102761.19;;;6.45;77.48
41596;BME280;27283;52.504;13.358;2024-01-27T10:25:18;102760.84;;;7.53;74.00
41596;BME280;27283;52.504;13.358;2024-01-27T10:27:55;102764.06;;;6.86;74.23
41596;BME280;27283;52.504;13.358;2024-01-27T10:30:28;102773.16;;;5.74;79.80
41596;BME280;27283;52.504;13.358;2024-01-27T10:32:59;102769.56;;;6.23;79.51
41596;BME280;27283;52.504;13.358;2024-01-27T10:35:33;102776.53;;;6.71;76.95
41596;BME280;27283;52.504;13.358;2024-01-27T10:38:10;102772.03;;;7.74;73.16
41596;BME280;27283;52.504;13.358;2024-01-27T10:40:42;102778.47;;;6.84;76.83
41596;BME280;27283;52.504;13.358;2024-01-27T10:43:14;102775.00;;;6.67;77.62
41596;BME280;27283;52.504;13.358;2024-01-27T10:45:49;102782.47;;;7.21;76.17
41596;BME280;27283;52.504;13.358;2024-01-27T10:48:26;102783.50;;;6.44;78.85
41596;BME280;27283;52.504;13.358;2024-01-27T10:51:00;102781.63;;;6.30;80.02
41596;BME280;27283;52.504;13.358;2024-01-27T10:53:37;102781.38;;;6.95;77.95
41596;BME280;27283;52.504;13.358;2024-01-27T10:56:11;102787.91;;;6.45;79.74
41596;BME280;27283;52.504;13.358;2024-01-27T10:58:43;102788.28;;;6.99;76.02
41596;BME280;27283;52.504;13.358;2024-01-27T11:01:19;102790.09;;;7.27;75.60
41596;BME280;27283;52.504;13.358;2024-01-27T11:03:55;102783.84;;;6.37;77.80
41596;BME280;27283;52.504;13.358;2024-01-27T11:06:29;102789.53;;;6.47;77.35
41596;BME280;27283;52.504;13.358;2024-01-27T11:09:08;102789.44;;;6.79;78.55
41596;BME280;27283;52.504;13.358;2024-01-27T11:11:41;102788.34;;;6.05;78.51
41596;BME280;27283;52.504;13.358;2024-01-27T11:14:14;102791.75;;;6.55;78.96
41596;BME280;27283;52.504;13.358;2024-01-27T11:16:55;102788.00;;;7.18;76.40
41596;BME280;27283;52.504;13.358;2024-01-27T11:19:29;102785.41;;;6.10;79.96
41596;BME280;27283;52.504;13.358;2024-01-27T11:22:03;102781.78;;;6.73;76.46
41596;BME280;27283;52.504;13.358;2024-01-27T11:24:40;102782.97;;;6.37;78.83
41596;BME280;27283;52.504;13.358;2024-01-27T11:27:13;102791.56;;;6.12;78.95
41596;BME280;27283;52.504;13.358;2024-01-27T11:29:48;102795.03;;;6.60;79.42
41596;BME280;27283;52.504;13.358;2024-01-27T11:32:26;102802.88;;;6.63;79.25
41596;BME280;27283;52.504;13.358;2024-01-27T11:35:01;102809.97;;;6.48;80.03
41596;BME280;27283;52.504;13.358;2024-01-27T11:37:34;102811.94;;;6.13;81.13
41596;BME280;27283;52.504;13.358;2024-01-27T11:40:13;102804.97;;;7.03;78.45
41596;BME280;27283;52.504;13.358;2024-01-27T11:42:54;102818.38;;;6.72;78.18
41596;BME280;27283;52.504;13.358;2024-01-27T11:45:26;102820.41;;;6.05;79.72
41596;BME280;27283;52.504;13.358;2024-01-27T11:48:14;102823.44;;;6.15;82.32
41596;BME280;27283;52.504;13.358;2024-01-27T11:51:05;102823.53;;;6.13;80.21
41596;BME280;27283;52.504;13.358;2024-01-27T11:53:37;102813.47;;;6.49;80.28
41596;BME280;27283;52.504;13.358;2024-01-27T11:56:13;102812.38;;;6.37;79.83
41596;BME280;27283;52.504;13.358;2024-01-27T11:58:46;102808.44;;;6.12;81.29
41596;BME280;27283;52.504;13.358;2024-01-27T12:01:19;102820.03;;;6.59;80.14
41596;BME280;27283;52.504;13.358;2024-01-27T12:03:51;102820.03;;;6.59;79.08
41596;BME280;27283;52.504;13.358;2024-01-27T12:06:28;102824.34;;;6.46;79.81
41596;BME280;27283;52.504;13.358;2024-01-27T12:08:59;102822.22;;;6.05;81.78
41596;BME280;27283;52.504;13.358;2024-01-27T12:11:34;102833.66;;;6.54;81.35
41596;BME280;27283;52.504;13.358;2024-01-27T12:14:06;102838.47;;;6.64;78.96
41596;BME280;27283;52.504;13.358;2024-01-27T12:16:41;102854.94;;;6.72;77.47
41596;BME280;27283;52.504;13.358;2024-01-27T12:19:13;102847.03;;;6.07;80.04
41596;BME280;27283;52.504;13.358;2024-01-27T12:21:48;102863.66;;;6.60;77.95
41596;BME280;27283;52.504;13.358;2024-01-27T12:24:20;102879.00;;;6.72;77.71
41596;BME280;27283;52.504;13.358;2024-01-27T12:26:55;102866.69;;;6.37;77.54
41596;BME280;27283;52.504;13.358;2024-01-27T12:29:27;102880.03;;;6.69;76.96
41596;BME280;27283;52.504;13.358;2024-01-27T12:32:00;102870.91;;;7.04;75.55
41596;BME280;27283;52.504;13.358;2024-01-27T12:34:31;102876.09;;;6.29;77.58
41596;BME280;27283;52.504;13.358;2024-01-27T12:37:04;102871.47;;;5.99;78.80
41596;BME280;27283;52.504;13.358;2024-01-27T12:39:41;102859.94;;;6.14;77.98
41596;BME280;27283;52.504;13.358;2024-01-27T12:42:17;102865.81;;;6.05;77.03
41596;BME280;27283;52.504;13.358;2024-01-27T12:44:49;102868.59;;;5.86;78.63
41596;BME280;27283;52.504;13.358;2024-01-27T12:47:38;102874.63;;;6.07;78.78
41596;BME280;27283;52.504;13.358;2024-01-27T12:50:11;102868.16;;;6.59;76.88
41596;BME280;27283;52.504;13.358;2024-01-27T12:52:44;102861.41;;;6.52;77.00
41596;BME280;27283;52.504;13.358;2024-01-27T12:55:16;102865.13;;;5.84;78.48
41596;BME280;27283;52.504;13.358;2024-01-27T12:57:51;102875.06;;;6.94;75.15
41596;BME280;27283;52.504;13.358;2024-01-27T13:00:24;102873.16;;;6.33;76.38
41596;BME280;27283;52.504;13.358;2024-01-27T13:02:56;102880.22;;;6.34;77.25
41596;BME280;27283;52.504;13.358;2024-01-27T13:05:29;102861.06;;;6.58;75.69
41596;BME280;27283;52.504;13.358;2024-01-27T13:08:04;102850.41;;;5.77;80.26
41596;BME280;27283;52.504;13.358;2024-01-27T13:10:37;102861.34;;;6.21;79.01
41596;BME280;27283;52.504;13.358;2024-01-27T13:13:12;102865.91;;;6.19;79.53
41596;BME280;27283;52.504;13.358;2024-01-27T13:15:43;102857.38;;;5.79;80.48
41596;BME280;27283;52.504;13.358;2024-01-27T13:18:34;102871.38;;;6.96;76.99
41596;BME280;27283;52.504;13.358;2024-01-27T13:21:08;102873.31;;;6.62;78.17
41596;BME280;27283;52.504;13.358;2024-01-27T13:23:42;102874.06;;;6.80;76.49
41596;BME280;27283;52.504;13.358;2024-01-27T13:26:14;102874.53;;;6.41;78.54